Archival Weather

Half Moon Bay

Half Moon Bay, California (KHAF)

Report from: Saturday, September 30, 2023 5:55 PM PDT
Current time: Monday, June 17, 2024 2:56 AM PDT

Current weather – Weather history – Daily summaries
Weather forecast

Present weatherMist
Temperature15.0°C (59.0°F)
Dew point13.0°C (55.4°F)
Winds 6 kts (3.1 m/s, 6.9 mph) Northwest (310°)
Visibility4 mi. (6.4 km)
Clouds Scattered clouds 1,500 ft. (457 m)
Altimeter29.82 in.Hg (1010 mB)
Relative humidity88 %
Density altitude325 ft. (99 m)
Remarks Fully automated report
Automated weather observing station with precipitation discriminator
Flight conditions Marginal Visual Meteorological Conditions
Raw dataKHAF 010055Z AUTO 31006KT 4SM BR SCT015 15/13 A2982 RMK AO2
An error has occurred. This application may no longer respond until reloaded. Reload 🗙